createdAt,value
2018-11-23T00:00:35.991Z,30.23
2018-11-23T00:03:06.168Z,31.47
2018-11-23T00:05:35.552Z,31.10
2018-11-23T00:08:04.111Z,30.93
2018-11-23T00:10:36.548Z,30.70
2018-11-23T00:13:07.909Z,30.50
2018-11-23T00:15:38.776Z,30.43
2018-11-23T00:18:08.584Z,30.70
2018-11-23T00:20:37.075Z,31.07
2018-11-23T00:23:05.792Z,30.87
2018-11-23T00:25:34.278Z,30.73
2018-11-23T00:28:09.145Z,29.57
2018-11-23T00:30:37.679Z,30.23
2018-11-23T00:33:06.171Z,29.37
2018-11-23T00:35:34.666Z,30.40
2018-11-23T00:38:03.236Z,30.13
2018-11-23T00:40:32.581Z,28.83
2018-11-23T00:43:02.464Z,28.60
2018-11-23T00:45:31.015Z,30.17
2018-11-23T00:48:00.193Z,27.77
2018-11-23T00:50:28.939Z,29.53
2018-11-23T00:52:58.736Z,28.90
2018-11-23T00:55:27.950Z,29.33
2018-11-23T00:57:57.737Z,28.73
2018-11-23T01:00:28.904Z,29.00
2018-11-23T01:02:58.326Z,30.03
2018-11-23T01:05:26.893Z,29.90
2018-11-23T01:07:55.670Z,29.53
2018-11-23T01:10:26.432Z,29.07
2018-11-23T01:12:55.840Z,29.50
2018-11-23T01:15:24.484Z,30.17
2018-11-23T01:17:53.095Z,30.00
2018-11-23T01:20:23.933Z,29.57
2018-11-23T01:22:53.173Z,31.27
2018-11-23T01:25:23.859Z,31.67
2018-11-23T01:27:53.308Z,30.40
2018-11-23T01:30:23.391Z,31.97
2018-11-23T01:32:51.922Z,31.80
2018-11-23T01:35:20.439Z,31.70
2018-11-23T01:37:48.967Z,30.20
2018-11-23T01:40:19.569Z,30.83
2018-11-23T01:42:48.365Z,30.20
2018-11-23T01:45:17.159Z,31.20
2018-11-23T01:47:45.740Z,30.43
2018-11-23T01:50:31.719Z,30.17
2018-11-23T01:53:01.629Z,29.23
2018-11-23T01:55:30.139Z,30.73
2018-11-23T01:58:00.152Z,29.53
2018-11-23T02:00:29.536Z,29.13
2018-11-23T02:02:59.555Z,29.93
2018-11-23T02:05:29.299Z,27.40
2018-11-23T02:07:57.777Z,29.37
2018-11-23T02:10:26.319Z,27.60
2018-11-23T02:12:56.204Z,30.00
2018-11-23T02:15:24.813Z,28.37
2018-11-23T02:17:54.517Z,27.50
2018-11-23T02:20:24.653Z,27.03
2018-11-23T02:22:53.134Z,27.37
2018-11-23T02:25:23.011Z,28.07
2018-11-23T02:27:51.601Z,29.47
2018-11-23T02:30:24.855Z,26.77
2018-11-23T02:32:54.620Z,28.43
2018-11-23T02:35:23.171Z,28.33
2018-11-23T02:37:52.291Z,28.73
2018-11-23T02:40:21.465Z,27.23
2018-11-23T02:42:51.051Z,28.23
2018-11-23T02:45:22.625Z,28.30
2018-11-23T02:47:51.493Z,28.97
2018-11-23T02:50:20.004Z,28.57
2018-11-23T02:52:48.684Z,28.73
2018-11-23T02:55:19.572Z,27.97
2018-11-23T02:57:48.304Z,28.33
2018-11-23T03:00:19.655Z,28.30
2018-11-23T03:02:48.186Z,27.93
2018-11-23T03:05:21.218Z,28.33
2018-11-23T03:07:49.753Z,27.83
2018-11-23T03:10:19.839Z,29.60
2018-11-23T03:12:49.346Z,28.70
2018-11-23T03:15:19.284Z,29.40
2018-11-23T03:17:48.252Z,29.67
2018-11-23T03:20:18.060Z,29.20
2018-11-23T03:22:46.574Z,29.80
2018-11-23T03:25:15.530Z,30.07
2018-11-23T03:27:44.033Z,30.90
2018-11-23T03:30:18.805Z,30.67
2018-11-23T03:32:48.352Z,31.53
2018-11-23T03:35:17.345Z,29.63
2018-11-23T03:37:46.855Z,31.33
2018-11-23T03:40:15.383Z,29.53
2018-11-23T03:42:43.920Z,29.60
2018-11-23T03:45:13.331Z,29.50
2018-11-23T03:47:43.721Z,29.10
2018-11-23T03:50:13.471Z,30.00
2018-11-23T03:52:42.474Z,29.53
2018-11-23T03:55:11.013Z,27.83
2018-11-23T03:57:39.746Z,28.07
2018-11-23T04:01:19.182Z,29.67
2018-11-23T04:03:47.680Z,27.10
2018-11-23T04:06:16.350Z,26.80
2018-11-23T04:08:44.853Z,27.30
2018-11-23T04:11:13.406Z,26.43
2018-11-23T04:13:42.013Z,26.73
2018-11-23T04:16:11.841Z,27.50
2018-11-23T04:18:41.945Z,27.00
2018-11-23T04:21:10.568Z,27.53
2018-11-23T04:23:39.176Z,27.27
2018-11-23T04:26:08.292Z,26.87
2018-11-23T04:28:36.896Z,26.97
2018-11-23T04:31:05.864Z,26.77
2018-11-23T04:33:34.984Z,26.57
2018-11-23T04:36:03.526Z,26.93
2018-11-23T04:38:32.033Z,27.97
2018-11-23T04:41:00.560Z,27.47
2018-11-23T04:43:29.070Z,28.67
2018-11-23T04:45:57.568Z,26.67
2018-11-23T04:48:26.113Z,27.33
2018-11-23T04:50:54.758Z,28.10
2018-11-23T04:53:23.358Z,26.97
2018-11-23T04:55:52.237Z,26.60
2018-11-23T04:58:20.728Z,28.07
2018-11-23T05:00:49.241Z,27.70
2018-11-23T05:03:17.734Z,28.20
2018-11-23T05:05:46.397Z,28.67
2018-11-23T05:08:16.108Z,27.93
2018-11-23T05:10:44.780Z,28.27
2018-11-23T05:13:13.275Z,29.73
2018-11-23T05:15:41.771Z,27.77
2018-11-23T05:18:10.281Z,28.23
2018-11-23T05:20:38.764Z,28.43
2018-11-23T05:23:07.273Z,27.20
2018-11-23T05:25:36.437Z,28.20
2018-11-23T05:28:05.427Z,27.53
2018-11-23T05:30:34.343Z,27.20
2018-11-23T05:33:02.863Z,27.90
2018-11-23T05:35:31.382Z,28.60
2018-11-23T05:38:00.806Z,26.83
2018-11-23T05:40:29.349Z,27.93
2018-11-23T05:43:04.141Z,28.00
2018-11-23T05:45:26.487Z,26.97
2018-11-23T05:47:54.967Z,28.07
2018-11-23T05:50:24.903Z,27.87
2018-11-23T05:52:53.591Z,28.50
2018-11-23T05:55:22.126Z,27.73
2018-11-23T05:57:51.322Z,27.37
2018-11-23T06:00:22.539Z,28.30
2018-11-23T06:02:51.306Z,28.73
2018-11-23T06:05:21.829Z,26.57
2018-11-23T06:07:50.348Z,28.93
2018-11-23T06:10:20.135Z,28.47
2018-11-23T06:12:48.638Z,28.43
2018-11-23T06:15:19.148Z,27.60
2018-11-23T06:17:48.293Z,29.27
2018-11-23T06:20:19.860Z,26.93
2018-11-23T06:22:49.309Z,27.20
2018-11-23T06:25:23.262Z,26.30
2018-11-23T06:27:51.839Z,28.80
2018-11-23T06:30:20.474Z,27.47
2018-11-23T06:33:01.671Z,27.43
2018-11-23T06:35:30.160Z,28.30
2018-11-23T06:37:58.676Z,26.27
2018-11-23T06:40:28.138Z,27.37
2018-11-23T06:42:56.642Z,27.20
2018-11-23T06:45:25.617Z,26.63
2018-11-23T06:47:54.150Z,26.30
2018-11-23T06:50:22.744Z,26.07
2018-11-23T06:52:51.226Z,26.53
2018-11-23T06:55:19.732Z,25.90
2018-11-23T06:57:48.234Z,26.57
2018-11-23T07:00:17.064Z,27.27
2018-11-23T07:02:45.936Z,26.33
2018-11-23T07:05:14.598Z,27.23
2018-11-23T07:07:43.124Z,27.17
2018-11-23T07:10:11.992Z,27.77
2018-11-23T07:12:40.822Z,27.47
2018-11-23T07:15:10.990Z,29.70
2018-11-23T07:17:40.089Z,27.90
2018-11-23T07:20:11.422Z,28.17
2018-11-23T07:22:40.853Z,27.60
2018-11-23T07:25:10.965Z,27.83
2018-11-23T07:27:39.836Z,26.90
2018-11-23T07:30:14.525Z,26.97
2018-11-23T07:32:43.265Z,26.63
2018-11-23T07:35:12.157Z,29.23
2018-11-23T07:37:40.687Z,26.57
2018-11-23T07:40:22.049Z,27.20
2018-11-23T07:42:50.693Z,26.33
2018-11-23T07:45:19.311Z,26.90
2018-11-23T07:47:47.805Z,27.13
2018-11-23T07:50:16.338Z,26.00
2018-11-23T07:52:44.957Z,27.33
2018-11-23T07:55:13.959Z,28.07
2018-11-23T07:57:42.477Z,26.50
2018-11-23T08:00:13.705Z,26.23
2018-11-23T08:02:42.879Z,25.90
2018-11-23T08:05:13.313Z,26.33
2018-11-23T08:07:42.589Z,26.80
2018-11-23T08:10:14.282Z,26.03
2018-11-23T08:12:44.101Z,25.90
2018-11-23T08:15:16.058Z,27.70
2018-11-23T08:17:44.557Z,26.60
2018-11-23T08:20:15.737Z,26.20
2018-11-23T08:22:44.353Z,26.33
2018-11-23T08:25:14.044Z,24.20
2018-11-23T08:27:43.780Z,25.40
2018-11-23T08:30:15.805Z,25.07
2018-11-23T08:32:44.421Z,25.63
2018-11-23T08:35:13.242Z,26.27
2018-11-23T08:37:41.794Z,25.70
2018-11-23T08:40:17.672Z,27.30
2018-11-23T08:42:47.190Z,26.70
2018-11-23T08:45:17.187Z,26.50
2018-11-23T08:47:45.735Z,25.47
2018-11-23T08:50:21.584Z,26.40
2018-11-23T08:52:50.078Z,25.87
2018-11-23T08:55:19.096Z,27.03
2018-11-23T08:57:47.625Z,24.73
2018-11-23T09:00:19.493Z,27.17
2018-11-23T09:02:49.260Z,25.73
2018-11-23T09:05:17.992Z,25.17
2018-11-23T09:07:48.577Z,25.57
2018-11-23T09:10:18.706Z,25.63
2018-11-23T09:12:49.116Z,24.43
2018-11-23T09:15:17.716Z,24.87
2018-11-23T09:17:46.814Z,24.83
2018-11-23T09:20:16.126Z,25.17
2018-11-23T09:22:46.032Z,24.90
2018-11-23T09:25:16.847Z,33.00
2018-11-23T09:27:45.459Z,25.70
2018-11-23T09:30:17.438Z,26.13
2018-11-23T09:32:47.659Z,25.60
2018-11-23T09:35:16.185Z,24.37
2018-11-23T09:37:45.138Z,29.67
2018-11-23T09:40:21.733Z,29.63
2018-11-23T09:42:50.500Z,27.90
2018-11-23T09:45:21.430Z,24.47
2018-11-23T09:47:51.346Z,25.20
2018-11-23T09:50:21.896Z,24.47
2018-11-23T09:52:51.790Z,24.87
2018-11-23T09:55:21.090Z,25.03
2018-11-23T09:57:49.677Z,22.87
2018-11-23T10:00:22.566Z,23.90
2018-11-23T10:02:52.165Z,22.97
2018-11-23T10:05:21.060Z,24.97
2018-11-23T10:07:51.082Z,25.87
2018-11-23T10:10:21.297Z,25.93
2018-11-23T10:12:49.845Z,24.37
2018-11-23T10:15:19.195Z,24.40
2018-11-23T10:17:47.709Z,24.03
2018-11-23T10:20:19.345Z,23.43
2018-11-23T10:22:48.301Z,24.43
2018-11-23T10:25:19.361Z,24.27
2018-11-23T10:27:48.193Z,23.33
2018-11-23T10:30:21.529Z,23.67
2018-11-23T10:32:51.260Z,23.63
2018-11-23T10:35:26.910Z,23.67
2018-11-23T10:37:56.737Z,22.27
2018-11-23T10:40:26.843Z,21.03
2018-11-23T10:42:55.367Z,24.77
2018-11-23T10:45:26.069Z,22.73
2018-11-23T10:47:55.225Z,22.97
2018-11-23T10:50:25.401Z,22.30
2018-11-23T10:52:53.917Z,20.93
2018-11-23T10:55:23.781Z,22.47
2018-11-23T10:57:53.760Z,22.13
2018-11-23T11:00:30.021Z,22.60
2018-11-23T11:03:01.545Z,22.70
2018-11-23T11:05:35.153Z,24.83
2018-11-23T11:08:04.626Z,23.73
2018-11-23T11:10:33.796Z,23.47
2018-11-23T11:13:02.339Z,25.87
2018-11-23T11:15:30.969Z,23.67
2018-11-23T11:18:00.113Z,25.07
2018-11-23T11:20:29.317Z,24.17
2018-11-23T11:22:57.843Z,25.07
2018-11-23T11:25:26.463Z,24.20
2018-11-23T11:27:55.751Z,24.30
2018-11-23T11:30:24.345Z,25.67
2018-11-23T11:32:53.827Z,24.03
2018-11-23T11:35:22.353Z,23.97
2018-11-23T11:37:50.963Z,23.50
2018-11-23T11:40:20.343Z,23.40
2018-11-23T11:42:48.871Z,22.53
2018-11-23T11:45:19.329Z,22.57
2018-11-23T11:47:48.450Z,23.13
2018-11-23T11:50:17.570Z,22.30
2018-11-23T11:52:47.549Z,22.53
2018-11-23T11:55:17.679Z,21.87
2018-11-23T11:57:47.075Z,23.43
2018-11-23T12:00:20.229Z,21.97
2018-11-23T12:02:48.822Z,22.53
2018-11-23T12:05:17.363Z,22.53
2018-11-23T12:07:45.930Z,23.07
2018-11-23T12:10:18.829Z,21.80
2018-11-23T12:12:47.368Z,22.60
2018-11-23T12:15:16.456Z,21.70
2018-11-23T12:17:45.329Z,20.93
2018-11-23T12:20:16.758Z,22.43
2018-11-23T12:22:45.806Z,21.60
2018-11-23T12:25:14.408Z,20.53
2018-11-23T12:27:46.042Z,20.70
2018-11-23T12:30:17.635Z,22.67
2018-11-23T12:32:47.266Z,20.93
2018-11-23T12:35:16.770Z,21.43
2018-11-23T12:37:45.335Z,21.23
2018-11-23T12:40:15.134Z,21.23
2018-11-23T12:42:44.350Z,23.27
2018-11-23T12:45:14.479Z,23.40
2018-11-23T12:47:43.019Z,22.70
2018-11-23T12:50:16.432Z,20.90
2018-11-23T12:52:45.202Z,21.13
2018-11-23T12:55:14.083Z,18.63
2018-11-23T12:57:42.922Z,19.80
2018-11-23T13:00:26.768Z,20.07
2018-11-23T13:03:03.638Z,20.03
2018-11-23T13:05:33.063Z,19.83
2018-11-23T13:08:03.171Z,18.97
2018-11-23T13:10:31.938Z,19.63
2018-11-23T13:13:01.264Z,20.53
2018-11-23T13:15:29.791Z,18.87
2018-11-23T13:17:59.022Z,19.57
2018-11-23T13:20:27.632Z,18.33
2018-11-23T13:22:56.145Z,18.63
2018-11-23T13:25:26.238Z,18.27
2018-11-23T13:27:55.111Z,18.13
2018-11-23T13:30:28.185Z,17.40
2018-11-23T13:32:56.829Z,17.47
2018-11-23T13:35:26.181Z,16.70
2018-11-23T13:37:54.741Z,15.23
2018-11-23T13:40:24.959Z,14.87
2018-11-23T13:42:55.414Z,14.00
2018-11-23T13:45:25.384Z,12.20
2018-11-23T13:47:55.152Z,13.33
2018-11-23T13:50:24.556Z,12.87
2018-11-23T13:52:54.735Z,12.90
2018-11-23T13:55:23.689Z,13.50
2018-11-23T13:57:52.255Z,12.80
2018-11-23T14:00:22.309Z,13.23
2018-11-23T14:02:50.867Z,12.90
2018-11-23T14:05:20.969Z,12.00
2018-11-23T14:07:51.951Z,13.30
2018-11-23T14:10:21.898Z,12.93
2018-11-23T14:12:50.532Z,13.13
2018-11-23T14:15:22.690Z,13.00
2018-11-23T14:17:52.621Z,12.80
2018-11-23T14:20:22.228Z,12.60
2018-11-23T14:22:50.794Z,12.37
2018-11-23T14:25:20.717Z,12.47
2018-11-23T14:27:50.527Z,11.90
2018-11-23T14:30:23.004Z,12.70
2018-11-23T14:32:51.899Z,12.70
2018-11-23T14:35:24.575Z,12.20
2018-11-23T14:37:53.898Z,13.30
2018-11-23T14:40:22.682Z,11.97
2018-11-23T14:42:51.865Z,12.60
2018-11-23T14:45:23.141Z,13.23
2018-11-23T14:47:52.537Z,12.63
2018-11-23T14:50:22.738Z,13.43
2018-11-23T14:52:53.080Z,14.37
2018-11-23T14:55:22.063Z,14.23
2018-11-23T14:57:50.597Z,15.13
2018-11-23T15:00:22.600Z,14.63
2018-11-23T15:02:52.664Z,15.03
2018-11-23T15:05:22.082Z,15.47
2018-11-23T15:07:50.699Z,14.93
2018-11-23T15:10:20.739Z,15.20
2018-11-23T15:12:50.657Z,15.60
2018-11-23T15:15:23.340Z,15.43
2018-11-23T15:17:52.757Z,15.90
2018-11-23T15:20:23.913Z,16.13
2018-11-23T15:22:55.276Z,16.90
2018-11-23T15:25:23.904Z,16.13
2018-11-23T15:27:52.598Z,16.90
2018-11-23T15:30:22.848Z,15.97
2018-11-23T15:32:51.668Z,17.80
2018-11-23T15:35:20.312Z,16.83
2018-11-23T15:37:48.819Z,17.30
2018-11-23T15:40:21.272Z,17.47
2018-11-23T15:42:50.864Z,18.10
2018-11-23T15:45:21.733Z,17.73
2018-11-23T15:47:50.541Z,18.80
2018-11-23T15:50:21.405Z,18.40
2018-11-23T15:52:50.074Z,19.87
2018-11-23T15:55:21.099Z,19.07
2018-11-23T15:57:50.806Z,19.20
2018-11-23T16:00:23.254Z,20.23
2018-11-23T16:02:52.080Z,19.00
2018-11-23T16:05:22.319Z,20.27
2018-11-23T16:07:51.904Z,19.73
2018-11-23T16:10:23.924Z,21.03
2018-11-23T16:12:53.926Z,21.10
2018-11-23T16:15:24.965Z,22.03
2018-11-23T16:17:54.013Z,22.30
2018-11-23T16:20:25.256Z,21.10
2018-11-23T16:22:56.206Z,21.03
2018-11-23T16:25:24.863Z,22.03
2018-11-23T16:27:55.186Z,23.13
2018-11-23T16:30:54.562Z,21.57
2018-11-23T16:33:24.753Z,21.37
2018-11-23T16:35:52.920Z,22.80
2018-11-23T16:38:22.919Z,22.43
2018-11-23T16:40:53.349Z,22.23
2018-11-23T16:43:22.010Z,21.70
2018-11-23T16:45:50.566Z,22.40
2018-11-23T16:48:20.041Z,22.50
2018-11-23T16:50:48.605Z,21.40
2018-11-23T16:53:17.202Z,22.20
2018-11-23T16:55:46.054Z,22.17
2018-11-23T16:58:15.581Z,22.70
2018-11-23T17:00:46.455Z,23.77
2018-11-23T17:03:18.977Z,24.80
2018-11-23T17:05:51.176Z,25.23
2018-11-23T17:08:20.056Z,25.10
2018-11-23T17:10:48.646Z,24.70
2018-11-23T17:13:17.324Z,25.67
2018-11-23T17:15:46.838Z,26.57
2018-11-23T17:18:15.581Z,25.90
2018-11-23T17:20:44.200Z,26.93
2018-11-23T17:23:13.405Z,27.47
2018-11-23T17:25:41.899Z,28.97
2018-11-23T17:28:12.289Z,27.60
2018-11-23T17:30:41.716Z,28.77
2018-11-23T17:33:10.301Z,29.77
2018-11-23T17:35:38.824Z,28.20
2018-11-23T17:38:07.446Z,31.30
2018-11-23T17:40:38.536Z,32.53
2018-11-23T17:43:07.387Z,32.13
2018-11-23T17:45:36.135Z,32.17
2018-11-23T17:48:05.095Z,36.60
2018-11-23T17:50:34.987Z,33.10
2018-11-23T17:53:03.549Z,33.60
2018-11-23T17:55:32.174Z,31.87
2018-11-23T17:58:00.958Z,31.73
2018-11-23T18:00:38.511Z,31.43
2018-11-23T18:03:01.532Z,31.07
2018-11-23T18:05:32.372Z,30.63
2018-11-23T18:08:02.392Z,29.77
2018-11-23T18:10:32.276Z,30.27
2018-11-23T18:13:02.191Z,31.80
2018-11-23T18:15:32.120Z,32.27
2018-11-23T18:18:01.918Z,31.20
2018-11-23T18:20:31.216Z,32.43
2018-11-23T18:23:01.773Z,32.33
2018-11-23T18:25:32.839Z,33.20
2018-11-23T18:28:00.569Z,32.33
2018-11-23T18:30:32.385Z,29.63
2018-11-23T18:33:03.331Z,31.80
2018-11-23T18:35:32.634Z,32.73
2018-11-23T18:38:01.230Z,33.33
2018-11-23T18:40:36.695Z,32.83
2018-11-23T18:42:59.082Z,33.97
2018-11-23T18:45:28.180Z,33.23
2018-11-23T18:47:56.699Z,31.57
2018-11-23T18:50:25.804Z,33.37
2018-11-23T18:52:54.373Z,33.40
2018-11-23T18:55:23.271Z,30.63
2018-11-23T18:57:51.841Z,31.07
2018-11-23T19:00:21.064Z,31.67
2018-11-23T19:02:50.158Z,30.83
2018-11-23T19:05:22.136Z,32.23
2018-11-23T19:07:50.635Z,30.40
2018-11-23T19:10:19.172Z,32.97
2018-11-23T19:12:47.772Z,33.40
2018-11-23T19:15:17.501Z,31.70
2018-11-23T19:17:47.064Z,28.53
2018-11-23T19:20:17.381Z,28.23
2018-11-23T19:22:47.303Z,28.13
2018-11-23T19:25:16.017Z,29.47
2018-11-23T19:27:44.601Z,28.17
2018-11-23T19:30:15.421Z,27.87
2018-11-23T19:32:44.952Z,28.00
2018-11-23T19:35:13.509Z,28.37
2018-11-23T19:37:42.017Z,29.70
2018-11-23T19:40:12.636Z,27.93
2018-11-23T19:42:41.169Z,27.77
2018-11-23T19:45:12.074Z,27.10
2018-11-23T19:47:40.627Z,26.87
2018-11-23T19:50:12.374Z,27.40
2018-11-23T19:52:41.760Z,27.77
2018-11-23T19:55:11.193Z,25.47
2018-11-23T19:57:39.712Z,27.37
2018-11-23T20:00:19.183Z,26.80
2018-11-23T20:02:47.789Z,27.60
2018-11-23T20:05:16.407Z,26.53
2018-11-23T20:07:45.588Z,27.73
2018-11-23T20:10:16.332Z,26.83
2018-11-23T20:12:46.651Z,26.90
2018-11-23T20:15:16.713Z,27.70
2018-11-23T20:17:45.321Z,26.27
2018-11-23T20:20:15.072Z,26.40
2018-11-23T20:22:45.538Z,25.83
2018-11-23T20:25:15.774Z,27.13
2018-11-23T20:27:45.344Z,25.87
2018-11-23T20:30:15.369Z,24.80
2018-11-23T20:32:45.062Z,26.67
2018-11-23T20:35:16.571Z,25.87
2018-11-23T20:37:45.190Z,25.53
2018-11-23T20:40:17.757Z,24.60
2018-11-23T20:42:46.429Z,24.07
2018-11-23T20:45:15.138Z,25.27
2018-11-23T20:47:45.028Z,24.60
2018-11-23T20:50:14.665Z,23.90
2018-11-23T20:52:44.226Z,24.10
2018-11-23T20:55:15.036Z,24.50
2018-11-23T20:57:45.676Z,25.07
2018-11-23T21:00:15.540Z,24.17
2018-11-23T21:02:44.871Z,25.70
2018-11-23T21:05:15.571Z,25.47
2018-11-23T21:07:44.165Z,25.00
2018-11-23T21:10:19.939Z,25.47
2018-11-23T21:12:43.172Z,24.63
2018-11-23T21:15:15.480Z,25.97
2018-11-23T21:17:44.029Z,25.43
2018-11-23T21:20:12.574Z,25.30
2018-11-23T21:22:41.089Z,25.77
2018-11-23T21:25:10.436Z,25.97
2018-11-23T21:27:39.055Z,26.27
2018-11-23T21:30:15.703Z,25.87
2018-11-23T21:32:45.449Z,25.90
2018-11-23T21:35:16.126Z,26.87
2018-11-23T21:37:46.008Z,25.50
2018-11-23T21:40:15.550Z,24.73
2018-11-23T21:42:45.652Z,25.00
2018-11-23T21:45:21.610Z,25.57
2018-11-23T21:47:50.175Z,25.10
2018-11-23T21:50:24.969Z,24.93
2018-11-23T21:52:49.038Z,26.47
2018-11-23T21:55:20.876Z,25.30
2018-11-23T21:57:51.526Z,26.20
2018-11-23T22:00:20.286Z,25.30
2018-11-23T22:02:52.757Z,24.33
2018-11-23T22:05:22.401Z,24.53
2018-11-23T22:07:52.210Z,24.20
2018-11-23T22:10:22.978Z,25.10
2018-11-23T22:12:52.700Z,25.00
2018-11-23T22:15:25.797Z,26.23
2018-11-23T22:17:56.452Z,25.77
2018-11-23T22:20:26.342Z,26.87
2018-11-23T22:22:57.659Z,24.67
2018-11-23T22:25:26.175Z,25.27
2018-11-23T22:27:54.716Z,26.07
2018-11-23T22:30:27.570Z,25.17
2018-11-23T22:32:57.770Z,27.07
2018-11-23T22:35:27.251Z,25.57
2018-11-23T22:37:58.790Z,25.10
2018-11-23T22:40:27.499Z,25.70
2018-11-23T22:43:00.405Z,25.53
2018-11-23T22:45:30.135Z,24.37
2018-11-23T22:48:00.498Z,24.73
2018-11-23T22:50:28.992Z,25.57
2018-11-23T22:52:57.478Z,26.30
2018-11-23T22:55:27.203Z,25.70
2018-11-23T22:57:58.591Z,25.63
2018-11-23T23:00:33.328Z,24.40
2018-11-23T23:03:03.753Z,26.33
2018-11-23T23:05:33.271Z,26.60
2018-11-23T23:08:02.633Z,26.67
2018-11-23T23:10:36.121Z,25.93
2018-11-23T23:13:05.891Z,25.27
2018-11-23T23:15:35.388Z,25.30
2018-11-23T23:18:04.668Z,25.73
2018-11-23T23:20:34.317Z,26.03
2018-11-23T23:23:03.161Z,24.97
2018-11-23T23:25:33.615Z,26.00
2018-11-23T23:28:02.141Z,24.90
2018-11-23T23:30:33.551Z,25.33
2018-11-23T23:33:03.893Z,25.80
2018-11-23T23:35:32.574Z,26.13
2018-11-23T23:38:01.136Z,25.27
2018-11-23T23:40:33.377Z,24.27
2018-11-23T23:43:01.927Z,23.47
2018-11-23T23:45:31.767Z,23.97
2018-11-23T23:48:02.895Z,23.00
2018-11-23T23:50:31.395Z,22.80
2018-11-23T23:53:01.307Z,23.40
2018-11-23T23:55:30.675Z,22.57
2018-11-23T23:58:00.785Z,23.93
